createdAt,value
2023-01-30T00:00:19.350Z,24.30
2023-01-30T00:01:27.203Z,25.85
2023-01-30T00:02:30.291Z,24.73
2023-01-30T00:03:34.489Z,22.60
2023-01-30T00:04:37.660Z,24.63
2023-01-30T00:05:40.689Z,24.25
2023-01-30T00:06:43.838Z,26.77
2023-01-30T00:07:48.128Z,25.80
2023-01-30T00:08:51.515Z,21.85
2023-01-30T00:09:54.744Z,27.98
2023-01-30T00:10:57.840Z,22.88
2023-01-30T00:12:01.134Z,29.83
2023-01-30T00:13:04.306Z,21.23
2023-01-30T00:14:07.457Z,22.83
2023-01-30T00:15:10.928Z,23.15
2023-01-30T00:16:14.407Z,21.33
2023-01-30T00:17:17.571Z,27.15
2023-01-30T00:18:20.747Z,21.15
2023-01-30T00:19:23.949Z,23.92
2023-01-30T00:20:27.152Z,22.90
2023-01-30T00:21:30.303Z,24.52
2023-01-30T00:22:33.354Z,21.02
2023-01-30T00:23:37.762Z,26.42
2023-01-30T00:24:40.905Z,23.60
2023-01-30T00:25:46.399Z,23.80
2023-01-30T00:26:49.649Z,20.75
2023-01-30T00:27:53.115Z,20.75
2023-01-30T00:28:56.171Z,21.80
2023-01-30T00:30:03.214Z,18.35
2023-01-30T00:31:07.950Z,19.85
2023-01-30T00:32:11.085Z,19.50
2023-01-30T00:33:17.643Z,20.98
2023-01-30T00:34:20.806Z,22.17
2023-01-30T00:35:28.716Z,21.70
2023-01-30T00:36:32.049Z,23.58
2023-01-30T00:37:35.424Z,20.42
2023-01-30T00:38:38.628Z,17.52
2023-01-30T00:39:43.655Z,16.95
2023-01-30T00:40:47.919Z,18.55
2023-01-30T00:42:09.791Z,18.42
2023-01-30T00:43:37.193Z,18.13
2023-01-30T00:44:58.830Z,19.15
2023-01-30T00:46:25.172Z,17.25
2023-01-30T00:47:29.711Z,19.40
2023-01-30T00:48:33.117Z,22.60
2023-01-30T00:49:37.781Z,19.02
2023-01-30T00:50:43.750Z,19.88
2023-01-30T00:51:48.410Z,17.23
2023-01-30T00:52:51.990Z,18.85
2023-01-30T00:53:55.236Z,19.25
2023-01-30T00:54:58.342Z,17.05
2023-01-30T00:56:01.454Z,17.83
2023-01-30T00:57:04.723Z,20.08
2023-01-30T00:58:08.178Z,20.02
2023-01-30T00:59:11.351Z,18.10
2023-01-30T01:00:17.258Z,18.45
2023-01-30T01:01:20.428Z,16.92
2023-01-30T01:02:23.738Z,16.38
2023-01-30T01:03:26.818Z,18.77
2023-01-30T01:04:29.996Z,17.73
2023-01-30T01:05:33.254Z,16.95
2023-01-30T01:06:38.072Z,18.60
2023-01-30T01:07:41.252Z,21.42
2023-01-30T01:08:44.908Z,15.05
2023-01-30T01:09:48.050Z,16.70
2023-01-30T01:10:51.330Z,17.35
2023-01-30T01:11:54.496Z,15.27
2023-01-30T01:12:57.678Z,14.55
2023-01-30T01:14:04.003Z,14.82
2023-01-30T01:15:07.777Z,17.35
2023-01-30T01:16:10.994Z,14.23
2023-01-30T01:17:14.134Z,17.10
2023-01-30T01:18:17.299Z,15.10
2023-01-30T01:19:20.368Z,15.88
2023-01-30T01:20:23.860Z,22.20
2023-01-30T01:21:27.162Z,15.25
2023-01-30T01:22:30.339Z,17.27
2023-01-30T01:23:33.613Z,15.43
2023-01-30T01:24:37.757Z,16.35
2023-01-30T01:25:41.008Z,18.27
2023-01-30T01:26:45.119Z,17.38
2023-01-30T01:27:48.961Z,13.75
2023-01-30T01:28:59.576Z,15.38
2023-01-30T01:30:02.877Z,16.05
2023-01-30T01:31:12.025Z,13.85
2023-01-30T01:32:15.326Z,14.98
2023-01-30T01:33:18.804Z,15.82
2023-01-30T01:34:21.914Z,15.38
2023-01-30T01:35:24.966Z,15.20
2023-01-30T01:37:55.862Z,12.82
2023-01-30T01:38:59.110Z,14.85
2023-01-30T01:40:21.244Z,17.13
2023-01-30T01:41:24.543Z,19.33
2023-01-30T01:42:33.440Z,14.25
2023-01-30T01:43:59.535Z,16.45
2023-01-30T01:45:24.698Z,15.43
2023-01-30T01:46:46.292Z,16.10
2023-01-30T01:48:11.761Z,16.48
2023-01-30T01:49:20.863Z,14.70
2023-01-30T01:50:41.286Z,16.02
2023-01-30T01:52:11.682Z,18.88
2023-01-30T01:53:18.296Z,15.57
2023-01-30T01:54:42.324Z,14.43
2023-01-30T01:55:50.005Z,15.10
2023-01-30T01:56:53.596Z,17.20
2023-01-30T01:58:13.430Z,14.45
2023-01-30T01:59:28.482Z,17.25
2023-01-30T02:00:33.106Z,17.75
2023-01-30T02:01:36.589Z,17.33
2023-01-30T02:02:49.766Z,12.98
2023-01-30T02:04:01.963Z,17.60
2023-01-30T02:05:06.673Z,13.85
2023-01-30T02:06:12.096Z,13.52
2023-01-30T02:07:20.810Z,15.40
2023-01-30T02:08:48.054Z,16.38
2023-01-30T02:09:52.192Z,15.57
2023-01-30T02:11:21.373Z,15.27
2023-01-30T02:12:25.680Z,16.90
2023-01-30T02:13:30.427Z,17.00
2023-01-30T02:14:35.875Z,14.02
2023-01-30T02:15:39.283Z,16.17
2023-01-30T02:16:46.196Z,12.38
2023-01-30T02:17:49.476Z,15.60
2023-01-30T02:18:53.100Z,14.32
2023-01-30T02:20:37.979Z,15.32
2023-01-30T02:21:54.139Z,12.65
2023-01-30T02:23:37.906Z,13.38
2023-01-30T02:25:08.256Z,12.70
2023-01-30T02:26:59.456Z,12.32
2023-01-30T02:28:39.936Z,12.00
2023-01-30T02:30:13.768Z,11.43
2023-01-30T02:31:47.913Z,14.27
2023-01-30T02:33:30.599Z,11.80
2023-01-30T02:34:51.928Z,14.50
2023-01-30T02:36:34.615Z,11.70
2023-01-30T02:37:49.924Z,14.40
2023-01-30T02:39:11.055Z,10.63
2023-01-30T02:40:39.550Z,12.52
2023-01-30T02:42:20.429Z,11.52
2023-01-30T02:43:44.683Z,10.95
2023-01-30T02:45:35.156Z,12.68
2023-01-30T02:46:43.632Z,11.60
2023-01-30T02:48:06.694Z,9.25
2023-01-30T02:49:14.547Z,10.80
2023-01-30T02:50:36.013Z,11.68
2023-01-30T02:51:42.690Z,10.23
2023-01-30T02:52:46.885Z,11.35
2023-01-30T02:53:51.076Z,11.02
2023-01-30T02:54:55.782Z,11.95
2023-01-30T02:56:00.579Z,9.60
2023-01-30T02:57:03.818Z,9.88
2023-01-30T02:58:07.594Z,10.82
2023-01-30T02:59:11.035Z,11.68
2023-01-30T03:00:22.542Z,9.73
2023-01-30T03:02:05.997Z,9.38
2023-01-30T03:04:10.208Z,9.57
2023-01-30T03:05:19.680Z,9.57
2023-01-30T03:07:16.980Z,8.93
2023-01-30T03:08:45.474Z,8.45
2023-01-30T03:10:29.715Z,10.02
2023-01-30T03:12:00.848Z,9.20
2023-01-30T03:13:29.102Z,12.60
2023-01-30T03:14:45.019Z,12.73
2023-01-30T03:16:24.923Z,9.63
2023-01-30T03:17:30.041Z,12.90
2023-01-30T03:18:33.307Z,11.85
2023-01-30T03:19:36.987Z,11.68
2023-01-30T03:20:41.400Z,8.80
2023-01-30T03:21:45.623Z,12.55
2023-01-30T03:22:51.526Z,8.00
2023-01-30T03:23:54.668Z,10.75
2023-01-30T03:24:58.007Z,9.02
2023-01-30T03:26:05.030Z,11.07
2023-01-30T03:27:12.786Z,8.80
2023-01-30T03:28:21.323Z,11.48
2023-01-30T03:29:25.431Z,12.38
2023-01-30T03:30:28.630Z,9.93
2023-01-30T03:31:40.583Z,10.10
2023-01-30T03:32:43.908Z,8.70
2023-01-30T03:33:48.968Z,10.43
2023-01-30T03:34:52.064Z,10.63
2023-01-30T03:35:55.663Z,12.35
2023-01-30T03:37:00.474Z,10.65
2023-01-30T03:38:03.892Z,12.27
2023-01-30T03:39:07.033Z,14.98
2023-01-30T03:40:13.312Z,10.30
2023-01-30T03:41:16.675Z,13.90
2023-01-30T03:42:19.990Z,12.55
2023-01-30T03:43:23.493Z,10.73
2023-01-30T03:44:26.684Z,11.20
2023-01-30T03:45:30.091Z,10.32
2023-01-30T03:46:33.243Z,10.85
2023-01-30T03:47:36.385Z,12.50
2023-01-30T03:48:39.556Z,13.52
2023-01-30T03:49:43.561Z,11.13
2023-01-30T03:50:46.652Z,10.77
2023-01-30T03:51:49.942Z,13.32
2023-01-30T03:52:53.929Z,11.00
2023-01-30T03:53:58.182Z,12.30
2023-01-30T03:55:01.493Z,8.77
2023-01-30T03:56:05.482Z,10.52
2023-01-30T03:57:10.762Z,15.80
2023-01-30T03:58:14.225Z,12.35
2023-01-30T03:59:17.292Z,13.13
2023-01-30T04:00:27.047Z,11.60
2023-01-30T04:01:30.374Z,10.45
2023-01-30T04:02:33.599Z,12.10
2023-01-30T04:03:37.584Z,12.35
2023-01-30T04:04:41.110Z,12.15
2023-01-30T04:05:46.459Z,10.82
2023-01-30T04:06:50.455Z,11.07
2023-01-30T04:07:57.961Z,12.70
2023-01-30T04:09:01.031Z,13.35
2023-01-30T04:10:18.475Z,12.30
2023-01-30T04:11:22.623Z,9.55
2023-01-30T04:12:25.706Z,10.13
2023-01-30T04:13:32.045Z,13.20
2023-01-30T04:14:35.404Z,14.13
2023-01-30T04:16:21.855Z,13.63
2023-01-30T04:17:44.563Z,9.32
2023-01-30T04:18:53.571Z,11.43
2023-01-30T04:19:59.256Z,18.08
2023-01-30T04:21:02.921Z,13.02
2023-01-30T04:22:11.438Z,11.80
2023-01-30T04:23:14.731Z,14.02
2023-01-30T04:24:18.021Z,11.98
2023-01-30T04:25:21.467Z,12.30
2023-01-30T04:26:25.178Z,11.57
2023-01-30T04:27:28.485Z,17.70
2023-01-30T04:28:53.896Z,12.80
2023-01-30T04:29:57.231Z,14.07
2023-01-30T04:31:00.729Z,12.10
2023-01-30T04:32:17.072Z,14.90
2023-01-30T04:33:20.384Z,11.52
2023-01-30T04:34:23.739Z,11.00
2023-01-30T04:35:26.926Z,12.50
2023-01-30T04:36:30.283Z,12.73
2023-01-30T04:37:34.031Z,12.90
2023-01-30T04:38:37.603Z,11.32
2023-01-30T04:39:41.377Z,14.85
2023-01-30T04:40:49.759Z,13.48
2023-01-30T04:41:53.477Z,13.68
2023-01-30T04:42:56.638Z,14.73
2023-01-30T04:44:22.368Z,13.35
2023-01-30T04:45:45.654Z,13.65
2023-01-30T04:46:48.755Z,14.10
2023-01-30T04:47:52.536Z,13.50
2023-01-30T04:48:55.685Z,12.80
2023-01-30T04:49:58.919Z,13.55
2023-01-30T04:51:02.076Z,17.38
2023-01-30T04:52:06.119Z,12.27
2023-01-30T04:53:10.041Z,10.35
2023-01-30T04:54:13.906Z,15.13
2023-01-30T04:55:18.351Z,13.68
2023-01-30T04:56:21.958Z,14.02
2023-01-30T04:57:26.309Z,13.52
2023-01-30T04:58:30.075Z,14.65
2023-01-30T04:59:33.456Z,15.13
2023-01-30T05:00:40.107Z,14.82
2023-01-30T05:01:43.492Z,13.65
2023-01-30T05:02:46.729Z,14.65
2023-01-30T05:03:53.982Z,12.30
2023-01-30T05:04:57.085Z,17.67
2023-01-30T05:06:00.183Z,16.30
2023-01-30T05:07:03.619Z,17.48
2023-01-30T05:08:06.858Z,13.55
2023-01-30T05:09:10.030Z,15.25
2023-01-30T05:10:13.341Z,13.88
2023-01-30T05:11:16.834Z,13.57
2023-01-30T05:12:19.933Z,15.20
2023-01-30T05:13:23.073Z,16.10
2023-01-30T05:14:26.351Z,15.27
2023-01-30T05:15:29.477Z,16.30
2023-01-30T05:16:32.940Z,15.30
2023-01-30T05:17:36.609Z,19.17
2023-01-30T05:18:40.136Z,13.85
2023-01-30T05:19:43.291Z,17.42
2023-01-30T05:20:46.389Z,16.63
2023-01-30T05:21:49.668Z,18.85
2023-01-30T05:22:52.854Z,15.35
2023-01-30T05:23:57.364Z,15.98
2023-01-30T05:25:00.540Z,16.13
2023-01-30T05:26:04.792Z,17.17
2023-01-30T05:27:08.108Z,15.15
2023-01-30T05:28:11.222Z,13.63
2023-01-30T05:29:14.365Z,13.88
2023-01-30T05:30:18.094Z,11.50
2023-01-30T05:31:21.511Z,11.82
2023-01-30T05:32:25.673Z,17.52
2023-01-30T05:33:29.706Z,16.25
2023-01-30T05:34:33.069Z,13.63
2023-01-30T05:35:36.345Z,13.45
2023-01-30T05:36:39.528Z,13.45
2023-01-30T05:37:42.803Z,17.33
2023-01-30T05:38:46.403Z,12.38
2023-01-30T05:39:49.582Z,10.68
2023-01-30T05:41:07.682Z,13.80
2023-01-30T05:42:10.857Z,14.32
2023-01-30T05:43:14.073Z,12.90
2023-01-30T05:44:17.300Z,15.88
2023-01-30T05:45:20.647Z,17.48
2023-01-30T05:46:24.354Z,16.05
2023-01-30T05:47:27.616Z,12.40
2023-01-30T05:48:31.399Z,14.88
2023-01-30T05:49:34.473Z,11.15
2023-01-30T05:50:37.625Z,11.15
2023-01-30T05:51:40.899Z,12.15
2023-01-30T05:52:44.128Z,13.27
2023-01-30T05:53:47.606Z,10.60
2023-01-30T05:54:50.807Z,7.93
2023-01-30T05:56:05.787Z,11.20
2023-01-30T05:57:08.877Z,10.55
2023-01-30T05:58:12.608Z,14.05
2023-01-30T05:59:16.472Z,11.73
2023-01-30T06:00:20.367Z,13.00
2023-01-30T06:01:24.026Z,8.88
2023-01-30T06:02:27.186Z,13.05
2023-01-30T06:03:30.472Z,13.95
2023-01-30T06:04:33.735Z,14.10
2023-01-30T06:05:38.734Z,8.15
2023-01-30T06:06:41.912Z,12.68
2023-01-30T06:07:45.199Z,9.30
2023-01-30T06:08:52.467Z,10.95
2023-01-30T06:09:55.621Z,10.05
2023-01-30T06:11:08.312Z,10.68
2023-01-30T06:12:11.420Z,10.25
2023-01-30T06:13:14.515Z,11.20
2023-01-30T06:14:17.701Z,12.45
2023-01-30T06:15:20.958Z,13.80
2023-01-30T06:16:24.184Z,11.75
2023-01-30T06:17:29.100Z,11.60
2023-01-30T06:18:33.273Z,11.95
2023-01-30T06:19:36.473Z,12.02
2023-01-30T06:20:39.657Z,13.90
2023-01-30T06:21:42.958Z,9.15
2023-01-30T06:22:46.183Z,14.02
2023-01-30T06:23:49.691Z,11.15
2023-01-30T06:24:52.809Z,12.38
2023-01-30T06:25:56.139Z,11.10
2023-01-30T06:27:00.104Z,11.15
2023-01-30T06:28:03.278Z,13.68
2023-01-30T06:29:06.537Z,12.32
2023-01-30T06:30:10.803Z,10.40
2023-01-30T06:31:14.140Z,12.85
2023-01-30T06:32:17.675Z,11.20
2023-01-30T06:33:21.377Z,12.15
2023-01-30T06:34:24.609Z,11.35
2023-01-30T06:35:27.958Z,15.57
2023-01-30T06:36:32.651Z,10.57
2023-01-30T06:37:35.959Z,12.38
2023-01-30T06:38:39.214Z,10.40
2023-01-30T06:39:42.333Z,15.65
2023-01-30T06:40:47.787Z,14.68
2023-01-30T06:41:50.961Z,11.32
2023-01-30T06:42:54.064Z,10.85
2023-01-30T06:43:57.242Z,14.27
2023-01-30T06:45:00.408Z,13.65
2023-01-30T06:46:03.645Z,11.73
2023-01-30T06:47:06.979Z,10.90
2023-01-30T06:48:10.428Z,12.35
2023-01-30T06:49:13.733Z,10.48
2023-01-30T06:50:19.236Z,11.07
2023-01-30T06:51:22.387Z,12.65
2023-01-30T06:52:25.561Z,13.25
2023-01-30T06:53:30.820Z,11.25
2023-01-30T06:54:34.047Z,9.55
2023-01-30T06:55:38.158Z,11.73
2023-01-30T06:56:41.605Z,14.90
2023-01-30T06:57:45.960Z,15.30
2023-01-30T06:58:49.105Z,10.63
2023-01-30T06:59:52.350Z,14.30
2023-01-30T07:00:55.837Z,13.75
2023-01-30T07:01:59.018Z,16.13
2023-01-30T07:03:02.489Z,16.90
2023-01-30T07:04:05.891Z,13.13
2023-01-30T07:05:10.708Z,15.32
2023-01-30T07:06:13.951Z,12.23
2023-01-30T07:07:17.108Z,13.50
2023-01-30T07:08:21.377Z,12.85
2023-01-30T07:09:25.637Z,13.32
2023-01-30T07:10:31.994Z,16.67
2023-01-30T07:11:35.083Z,14.32
2023-01-30T07:12:38.326Z,15.02
2023-01-30T07:13:41.480Z,14.27
2023-01-30T07:14:44.728Z,13.40
2023-01-30T07:15:48.165Z,12.70
2023-01-30T07:16:51.399Z,13.65
2023-01-30T07:17:54.892Z,16.23
2023-01-30T07:18:58.813Z,15.10
2023-01-30T07:20:01.971Z,14.77
2023-01-30T07:21:05.394Z,15.57
2023-01-30T07:22:08.440Z,14.02
2023-01-30T07:23:12.224Z,13.90
2023-01-30T07:24:15.450Z,13.20
2023-01-30T07:25:20.589Z,11.90
2023-01-30T07:26:24.958Z,16.58
2023-01-30T07:27:28.256Z,15.25
2023-01-30T07:28:31.487Z,14.23
2023-01-30T07:29:39.838Z,16.55
2023-01-30T07:30:43.308Z,18.77
2023-01-30T07:31:46.624Z,20.45
2023-01-30T07:32:55.186Z,16.33
2023-01-30T07:33:58.309Z,27.73
2023-01-30T07:35:02.065Z,21.10
2023-01-30T07:36:06.447Z,17.08
2023-01-30T07:37:09.825Z,15.63
2023-01-30T07:38:12.894Z,19.58
2023-01-30T07:39:15.996Z,18.65
2023-01-30T07:40:20.748Z,19.17
2023-01-30T07:41:24.029Z,14.48
2023-01-30T07:42:27.111Z,19.33
2023-01-30T07:43:30.517Z,15.30
2023-01-30T07:44:36.680Z,18.95
2023-01-30T07:45:43.366Z,13.25
2023-01-30T07:46:46.556Z,16.05
2023-01-30T07:47:49.791Z,16.65
2023-01-30T07:48:52.941Z,17.33
2023-01-30T07:49:56.058Z,15.15
2023-01-30T07:50:59.555Z,16.05
2023-01-30T07:52:02.701Z,13.35
2023-01-30T07:53:08.325Z,15.13
2023-01-30T07:54:11.458Z,17.13
2023-01-30T07:55:14.678Z,25.08
2023-01-30T07:56:20.018Z,20.65
2023-01-30T07:57:23.340Z,21.33
2023-01-30T07:58:26.463Z,17.08
2023-01-30T07:59:29.609Z,18.23
2023-01-30T08:00:33.277Z,17.67
2023-01-30T08:01:36.332Z,18.77
2023-01-30T08:02:39.529Z,16.15
2023-01-30T08:03:43.884Z,19.08
2023-01-30T08:04:46.979Z,16.67
2023-01-30T08:05:50.147Z,18.02
2023-01-30T08:06:53.389Z,17.60
2023-01-30T08:07:57.345Z,16.02
2023-01-30T08:09:00.461Z,14.35
2023-01-30T08:10:04.130Z,17.33
2023-01-30T08:11:07.941Z,16.35
2023-01-30T08:12:11.723Z,19.98
2023-01-30T08:13:15.248Z,13.63
2023-01-30T08:14:18.449Z,15.63
2023-01-30T08:15:22.937Z,15.65
2023-01-30T08:16:26.547Z,16.05
2023-01-30T08:17:29.754Z,17.55
2023-01-30T08:18:34.924Z,16.15
2023-01-30T08:19:38.020Z,18.45
2023-01-30T08:20:42.864Z,17.40
2023-01-30T08:21:45.992Z,19.65
2023-01-30T08:22:49.206Z,18.17
2023-01-30T08:23:52.353Z,20.27
2023-01-30T08:24:55.472Z,18.73
2023-01-30T08:26:04.279Z,17.85
2023-01-30T08:27:07.508Z,20.20
2023-01-30T08:28:10.600Z,18.95
2023-01-30T08:29:13.754Z,16.73
2023-01-30T08:30:17.901Z,21.23
2023-01-30T08:31:21.424Z,20.10
2023-01-30T08:32:24.660Z,18.27
2023-01-30T08:33:28.474Z,17.65
2023-01-30T08:34:31.983Z,17.42
2023-01-30T08:35:35.179Z,17.58
2023-01-30T08:36:38.374Z,15.52
2023-01-30T08:37:42.850Z,18.73
2023-01-30T08:38:46.044Z,19.60
2023-01-30T08:39:49.341Z,20.13
2023-01-30T08:40:52.510Z,18.38
2023-01-30T08:41:55.734Z,19.90
2023-01-30T08:42:58.965Z,20.17
2023-01-30T08:44:02.217Z,17.75
2023-01-30T08:45:06.230Z,17.98
2023-01-30T08:46:09.420Z,20.85
2023-01-30T08:47:12.671Z,20.42
2023-01-30T08:48:16.079Z,20.45
2023-01-30T08:49:19.396Z,19.10
2023-01-30T08:50:22.524Z,24.00
2023-01-30T08:51:25.749Z,21.70
2023-01-30T08:52:28.875Z,19.42
2023-01-30T08:53:31.997Z,20.75
2023-01-30T08:54:35.084Z,16.80
2023-01-30T08:55:38.513Z,17.95
2023-01-30T08:56:41.951Z,19.48
2023-01-30T08:57:45.291Z,16.08
2023-01-30T08:58:49.227Z,18.38
2023-01-30T08:59:52.884Z,23.15
2023-01-30T09:00:56.199Z,18.10
2023-01-30T09:01:59.582Z,18.80
2023-01-30T09:03:02.960Z,16.00
2023-01-30T09:04:06.269Z,17.92
2023-01-30T09:05:11.129Z,21.00
2023-01-30T09:06:14.864Z,20.80
2023-01-30T09:07:18.024Z,18.27
2023-01-30T09:08:21.161Z,21.40
2023-01-30T09:09:24.460Z,18.75
2023-01-30T09:10:27.653Z,17.45
2023-01-30T09:11:31.428Z,18.05
2023-01-30T09:12:59.866Z,17.40
2023-01-30T09:14:03.006Z,22.10
2023-01-30T09:15:07.208Z,17.73
2023-01-30T09:16:12.622Z,17.52
2023-01-30T09:17:15.940Z,21.83
2023-01-30T09:18:19.050Z,19.10
2023-01-30T09:19:24.613Z,22.40
2023-01-30T09:20:27.960Z,25.15
2023-01-30T09:21:32.194Z,20.10
2023-01-30T09:22:35.690Z,20.08
2023-01-30T09:23:39.320Z,18.65
2023-01-30T09:24:42.654Z,17.20
2023-01-30T09:25:46.866Z,19.73
2023-01-30T09:26:50.001Z,19.77
2023-01-30T09:27:53.248Z,18.67
2023-01-30T09:28:56.327Z,18.02
2023-01-30T09:29:59.561Z,19.25
2023-01-30T09:31:03.293Z,17.17
2023-01-30T09:32:06.647Z,16.58
2023-01-30T09:33:09.757Z,20.73
2023-01-30T09:34:12.919Z,18.15
2023-01-30T09:35:16.215Z,21.05
2023-01-30T09:36:19.423Z,14.82
2023-01-30T09:37:22.726Z,17.88
2023-01-30T09:38:25.839Z,22.63
2023-01-30T09:39:30.038Z,17.10
2023-01-30T09:40:39.652Z,18.58
2023-01-30T09:42:05.826Z,16.58
2023-01-30T09:43:20.545Z,17.90
2023-01-30T09:45:00.721Z,17.27
2023-01-30T09:46:35.022Z,17.23
2023-01-30T09:47:56.617Z,17.88
2023-01-30T09:49:20.345Z,18.83
2023-01-30T09:51:00.718Z,17.38
2023-01-30T09:52:32.589Z,19.42
2023-01-30T09:54:11.244Z,17.88
2023-01-30T09:55:31.023Z,16.52
2023-01-30T09:56:34.234Z,17.92
2023-01-30T09:57:37.336Z,15.23
2023-01-30T09:58:59.987Z,18.45
2023-01-30T10:00:10.242Z,17.42
2023-01-30T10:01:51.268Z,17.38
2023-01-30T10:03:06.739Z,16.30
2023-01-30T10:05:00.195Z,16.92
2023-01-30T10:06:14.755Z,15.88
2023-01-30T10:07:43.213Z,16.70
2023-01-30T10:09:11.402Z,15.73
2023-01-30T10:10:29.513Z,17.30
2023-01-30T10:12:25.457Z,17.27
2023-01-30T10:13:52.389Z,18.35
2023-01-30T10:15:43.502Z,16.98
2023-01-30T10:17:04.854Z,16.75
2023-01-30T10:18:32.847Z,19.85
2023-01-30T10:19:50.098Z,19.02
2023-01-30T10:21:17.596Z,14.85
2023-01-30T10:23:02.208Z,13.75
2023-01-30T10:24:24.819Z,16.80
2023-01-30T10:25:50.492Z,17.38
2023-01-30T10:26:54.465Z,15.98
2023-01-30T10:28:13.254Z,16.17
2023-01-30T10:29:37.944Z,17.60
2023-01-30T10:30:44.194Z,18.23
2023-01-30T10:32:01.205Z,14.55
2023-01-30T10:33:53.409Z,20.67
2023-01-30T10:35:14.008Z,14.27
2023-01-30T10:36:29.645Z,12.98
2023-01-30T10:38:29.100Z,18.15
2023-01-30T10:40:05.758Z,14.25
2023-01-30T10:41:24.400Z,13.55
2023-01-30T10:42:41.039Z,17.48
2023-01-30T10:47:13.747Z,13.23
2023-01-30T10:48:49.984Z,14.40
2023-01-30T10:50:18.124Z,14.50
2023-01-30T10:52:03.937Z,16.08
2023-01-30T10:53:12.506Z,17.33
2023-01-30T10:54:28.740Z,15.38
2023-01-30T10:55:47.067Z,16.05
2023-01-30T10:57:36.397Z,16.15
2023-01-30T10:58:51.655Z,12.75
2023-01-30T11:00:05.681Z,15.18
2023-01-30T11:01:27.039Z,13.77
2023-01-30T11:02:44.905Z,14.15
2023-01-30T11:03:56.421Z,14.02
2023-01-30T11:05:13.085Z,13.35
2023-01-30T11:06:25.118Z,12.70
2023-01-30T11:07:32.573Z,15.18
2023-01-30T11:08:36.766Z,14.43
2023-01-30T11:09:49.467Z,14.40
2023-01-30T11:10:54.205Z,12.23
2023-01-30T11:11:57.719Z,14.70
2023-01-30T11:13:30.220Z,18.52
2023-01-30T11:14:53.228Z,12.50
2023-01-30T11:16:05.736Z,12.95
2023-01-30T11:17:18.434Z,12.45
2023-01-30T11:19:14.751Z,12.85
2023-01-30T11:19:54.374Z,12.75
2023-01-30T11:21:06.595Z,14.43
2023-01-30T11:22:15.213Z,11.68
2023-01-30T11:23:40.656Z,12.40
2023-01-30T11:24:45.730Z,12.90
2023-01-30T11:26:09.244Z,13.35
2023-01-30T11:27:30.042Z,10.50
2023-01-30T11:28:48.702Z,12.75
2023-01-30T11:30:10.451Z,12.75
2023-01-30T11:31:41.830Z,10.73
2023-01-30T11:32:49.925Z,10.68
2023-01-30T11:34:25.763Z,10.20
2023-01-30T11:35:31.027Z,11.60
2023-01-30T11:36:35.991Z,13.27
2023-01-30T11:37:42.310Z,15.48
2023-01-30T11:38:59.457Z,12.65
2023-01-30T11:40:31.181Z,12.25
2023-01-30T11:41:34.371Z,11.07
2023-01-30T11:42:43.700Z,12.15
2023-01-30T11:43:49.428Z,11.02
2023-01-30T11:45:14.863Z,12.73
2023-01-30T11:46:21.407Z,9.82
2023-01-30T11:47:27.696Z,10.90
2023-01-30T11:49:11.124Z,14.15
2023-01-30T11:50:16.867Z,8.77
2023-01-30T11:51:24.952Z,14.98
2023-01-30T11:52:33.702Z,11.95
2023-01-30T11:53:44.387Z,12.40
2023-01-30T11:54:49.004Z,11.52
2023-01-30T11:56:03.855Z,12.85
2023-01-30T11:57:15.835Z,10.07
2023-01-30T11:58:19.329Z,14.60
2023-01-30T11:59:39.301Z,9.50
2023-01-30T12:00:49.288Z,9.77
2023-01-30T12:02:01.897Z,9.35
2023-01-30T12:03:10.741Z,11.23
2023-01-30T12:04:14.442Z,9.80
2023-01-30T12:05:37.062Z,11.75
2023-01-30T12:06:43.149Z,10.32
2023-01-30T12:07:49.351Z,12.82
2023-01-30T12:08:54.958Z,10.00
2023-01-30T12:09:59.671Z,12.18
2023-01-30T12:11:03.331Z,11.02
2023-01-30T12:12:47.952Z,11.35
2023-01-30T12:13:52.899Z,13.00
2023-01-30T12:15:29.849Z,11.60
2023-01-30T12:17:40.964Z,10.93
2023-01-30T12:19:05.847Z,10.70
2023-01-30T12:20:36.102Z,12.05
2023-01-30T12:22:11.915Z,12.43
2023-01-30T12:23:52.701Z,10.57
2023-01-30T12:25:03.483Z,13.85
2023-01-30T12:29:34.373Z,16.73
2023-01-30T12:30:46.554Z,17.65
2023-01-30T12:32:25.273Z,21.45
2023-01-30T12:33:33.295Z,15.77
2023-01-30T12:34:37.478Z,17.88
2023-01-30T12:36:13.861Z,23.08
2023-01-30T12:37:37.785Z,20.05
2023-01-30T12:39:12.786Z,15.18
2023-01-30T12:40:54.067Z,12.80
2023-01-30T12:42:06.553Z,10.60
2023-01-30T12:43:43.482Z,13.85
2023-01-30T12:45:13.715Z,12.15
2023-01-30T12:46:37.546Z,11.40
2023-01-30T12:48:48.323Z,16.88
2023-01-30T12:50:41.215Z,21.92
2023-01-30T12:52:08.967Z,22.42
2023-01-30T12:53:57.007Z,17.50
2023-01-30T12:55:39.744Z,15.75
2023-01-30T12:57:13.845Z,12.40
2023-01-30T12:58:47.562Z,13.95
2023-01-30T13:00:13.643Z,11.57
2023-01-30T13:01:43.280Z,10.95
2023-01-30T13:02:59.437Z,11.88
2023-01-30T13:04:37.568Z,14.98
2023-01-30T13:06:06.769Z,10.60
2023-01-30T13:07:35.933Z,10.38
2023-01-30T13:09:08.122Z,12.93
2023-01-30T13:10:41.405Z,11.07
2023-01-30T13:12:12.318Z,18.17
2023-01-30T13:13:27.558Z,13.18
2023-01-30T13:15:02.724Z,15.80
2023-01-30T13:17:07.092Z,14.88
2023-01-30T13:18:43.772Z,13.75
2023-01-30T13:19:58.717Z,11.68
2023-01-30T13:21:21.979Z,12.52
2023-01-30T13:22:41.486Z,12.90
2023-01-30T13:24:05.839Z,11.75
2023-01-30T13:25:18.910Z,13.63
2023-01-30T13:26:37.374Z,14.60
2023-01-30T13:27:47.056Z,13.50
2023-01-30T13:28:57.266Z,16.38
2023-01-30T13:30:01.983Z,14.35
2023-01-30T13:31:11.742Z,18.13
2023-01-30T13:32:41.644Z,16.77
2023-01-30T13:33:49.845Z,17.50
2023-01-30T13:34:56.907Z,16.27
2023-01-30T13:36:22.808Z,15.68
2023-01-30T13:37:26.065Z,16.58
2023-01-30T13:38:31.108Z,18.02
2023-01-30T13:39:47.789Z,15.43
2023-01-30T13:40:57.672Z,16.55
2023-01-30T13:42:06.006Z,19.20
2023-01-30T13:43:10.195Z,18.48
2023-01-30T13:44:27.711Z,15.77
2023-01-30T13:45:36.879Z,16.35
2023-01-30T13:46:40.811Z,15.27
2023-01-30T13:48:10.415Z,15.02
2023-01-30T13:49:24.862Z,20.70
2023-01-30T13:50:41.727Z,22.92
2023-01-30T13:52:19.292Z,15.15
2023-01-30T13:53:39.834Z,18.40
2023-01-30T13:55:21.117Z,16.67
2023-01-30T13:56:49.510Z,17.77
2023-01-30T13:58:44.384Z,15.65
2023-01-30T14:00:09.631Z,16.98
2023-01-30T14:01:15.767Z,17.08
2023-01-30T14:02:22.822Z,18.58
2023-01-30T14:03:34.326Z,19.10
2023-01-30T14:04:40.475Z,15.98
2023-01-30T14:05:52.915Z,18.83
2023-01-30T14:07:33.736Z,18.90
2023-01-30T14:08:46.335Z,21.63
2023-01-30T14:10:09.453Z,23.42
2023-01-30T14:11:37.231Z,21.42
2023-01-30T14:12:54.932Z,18.73
2023-01-30T14:14:18.225Z,21.00
2023-01-30T14:15:29.236Z,19.20
2023-01-30T14:17:16.663Z,19.80
2023-01-30T14:18:36.125Z,16.13
2023-01-30T14:22:34.054Z,15.52
2023-01-30T14:23:37.832Z,13.85
2023-01-30T14:24:41.415Z,17.17
2023-01-30T14:25:48.846Z,15.40
2023-01-30T14:27:00.595Z,14.18
2023-01-30T14:28:07.605Z,17.50
2023-01-30T14:29:32.881Z,14.50
2023-01-30T14:30:50.301Z,13.95
2023-01-30T14:31:53.984Z,15.70
2023-01-30T14:33:00.293Z,14.93
2023-01-30T14:34:03.700Z,15.15
2023-01-30T14:35:06.791Z,13.50
2023-01-30T14:36:15.918Z,14.05
2023-01-30T14:37:35.065Z,16.60
2023-01-30T14:38:40.624Z,16.23
2023-01-30T14:39:53.173Z,15.35
2023-01-30T14:40:59.232Z,13.88
2023-01-30T14:42:30.489Z,13.20
2023-01-30T14:43:42.092Z,14.60
2023-01-30T14:45:04.961Z,14.40
2023-01-30T14:46:20.327Z,15.25
2023-01-30T14:47:35.112Z,14.00
2023-01-30T14:49:23.187Z,17.67
2023-01-30T14:50:26.410Z,12.32
2023-01-30T14:51:39.001Z,11.00
2023-01-30T14:52:43.340Z,16.23
2023-01-30T14:53:56.901Z,16.33
2023-01-30T14:55:00.320Z,16.38
2023-01-30T14:56:04.669Z,11.23
2023-01-30T14:57:27.710Z,14.85
2023-01-30T14:58:30.973Z,15.63
2023-01-30T14:59:36.963Z,12.10
2023-01-30T15:00:40.636Z,19.17
2023-01-30T15:02:14.379Z,15.73
2023-01-30T15:03:20.415Z,12.40
2023-01-30T15:04:32.540Z,12.35
2023-01-30T15:05:46.218Z,17.65
2023-01-30T15:06:50.214Z,14.55
2023-01-30T15:08:10.715Z,20.27
2023-01-30T15:09:22.501Z,14.18
2023-01-30T15:11:13.864Z,17.42
2023-01-30T15:13:59.714Z,24.77
2023-01-30T15:15:27.076Z,14.43
2023-01-30T15:17:08.851Z,12.20
2023-01-30T15:18:48.139Z,13.88
2023-01-30T15:20:14.049Z,16.15
2023-01-30T15:21:41.757Z,19.00
2023-01-30T15:23:40.124Z,14.32
2023-01-30T15:25:05.205Z,17.27
2023-01-30T15:26:41.102Z,16.10
2023-01-30T15:27:59.293Z,15.00
2023-01-30T15:29:39.047Z,14.75
2023-01-30T15:30:57.620Z,14.80